createdAt,value
2023-04-28T00:01:19.267Z,3.83
2023-04-28T00:03:47.019Z,5.50
2023-04-28T00:06:14.587Z,8.37
2023-04-28T00:08:42.076Z,12.73
2023-04-28T00:11:10.875Z,6.50
2023-04-28T00:13:38.455Z,5.87
2023-04-28T00:16:08.358Z,7.63
2023-04-28T00:18:35.827Z,6.40
2023-04-28T00:21:03.258Z,6.10
2023-04-28T00:23:30.733Z,6.97
2023-04-28T00:25:58.270Z,4.20
2023-04-28T00:30:56.227Z,3.93
2023-04-28T00:33:24.998Z,6.53
2023-04-28T00:36:00.027Z,6.50
2023-04-28T00:38:27.488Z,4.47
2023-04-28T00:40:54.929Z,5.97
2023-04-28T00:43:22.626Z,5.57
2023-04-28T00:45:50.247Z,5.23
2023-04-28T00:48:17.868Z,4.90
2023-04-28T00:50:47.633Z,5.07
2023-04-28T00:53:15.344Z,5.63
2023-04-28T00:55:42.828Z,3.60
2023-04-28T00:58:10.609Z,3.83
2023-04-28T01:00:38.026Z,5.83
2023-04-28T01:03:05.777Z,8.10
2023-04-28T01:05:34.045Z,4.70
2023-04-28T01:08:02.953Z,8.27
2023-04-28T01:10:30.711Z,6.33
2023-04-28T01:12:58.139Z,3.83
2023-04-28T01:15:25.588Z,7.20
2023-04-28T01:17:53.258Z,6.37
2023-04-28T01:20:20.979Z,4.13
2023-04-28T01:22:48.392Z,5.47
2023-04-28T01:25:17.180Z,3.53
2023-04-28T01:27:44.582Z,4.00
2023-04-28T01:30:12.503Z,5.67
2023-04-28T01:32:39.948Z,6.73
2023-04-28T01:35:07.816Z,8.23
2023-04-28T01:37:35.234Z,4.20
2023-04-28T01:40:02.683Z,4.27
2023-04-28T01:42:31.517Z,6.43
2023-04-28T01:44:58.935Z,5.80
2023-04-28T01:47:26.381Z,4.03
2023-04-28T01:49:53.815Z,6.83
2023-04-28T01:52:22.968Z,4.03
2023-04-28T01:54:50.409Z,4.93
2023-04-28T01:57:18.179Z,4.80
2023-04-28T01:59:48.211Z,7.50
2023-04-28T02:02:15.691Z,4.17
2023-04-28T02:04:43.185Z,6.20
2023-04-28T02:07:10.695Z,4.97
2023-04-28T02:09:38.164Z,5.10
2023-04-28T02:12:05.765Z,3.87
2023-04-28T02:14:33.210Z,5.63
2023-04-28T02:17:02.922Z,4.57
2023-04-28T02:19:30.570Z,6.70
2023-04-28T02:21:58.129Z,5.53
2023-04-28T02:24:25.644Z,5.90
2023-04-28T02:26:53.566Z,6.10
2023-04-28T02:29:21.239Z,8.70
2023-04-28T02:31:48.701Z,4.30
2023-04-28T02:34:17.603Z,5.67
2023-04-28T02:36:45.130Z,4.80
2023-04-28T02:39:12.735Z,4.50
2023-04-28T02:41:40.214Z,4.80
2023-04-28T02:44:07.669Z,4.50
2023-04-28T02:46:35.873Z,6.00
2023-04-28T02:49:03.620Z,6.97
2023-04-28T02:51:32.804Z,4.87
2023-04-28T02:54:00.261Z,4.60
2023-04-28T02:56:29.711Z,6.00
2023-04-28T02:58:57.235Z,4.87
2023-04-28T03:01:24.975Z,6.90
2023-04-28T03:03:52.626Z,9.13
2023-04-28T03:06:20.245Z,6.53
2023-04-28T03:08:49.045Z,5.07
2023-04-28T03:11:16.503Z,4.80
2023-04-28T03:13:43.947Z,6.63
2023-04-28T03:16:11.447Z,5.70
2023-04-28T03:18:38.942Z,6.30
2023-04-28T03:21:06.550Z,8.23
2023-04-28T03:23:33.982Z,6.17
2023-04-28T03:26:02.754Z,5.50
2023-04-28T03:28:30.259Z,5.57
2023-04-28T03:30:57.697Z,4.90
2023-04-28T03:33:25.489Z,12.20
2023-04-28T03:35:53.537Z,5.77
2023-04-28T03:38:21.090Z,7.90
2023-04-28T03:40:48.513Z,8.93
2023-04-28T03:43:17.287Z,5.43
2023-04-28T03:45:44.781Z,5.83
2023-04-28T03:48:12.371Z,5.70
2023-04-28T03:50:40.930Z,7.80
2023-04-28T03:53:08.563Z,5.40
2023-04-28T03:55:36.121Z,5.97
2023-04-28T03:58:03.647Z,6.20
2023-04-28T04:00:32.562Z,5.03
2023-04-28T04:03:00.271Z,5.60
2023-04-28T04:05:27.879Z,6.90
2023-04-28T04:07:55.326Z,7.40
2023-04-28T04:10:22.773Z,9.20
2023-04-28T04:12:50.218Z,9.40
2023-04-28T04:15:17.674Z,9.20
2023-04-28T04:17:46.552Z,8.77
2023-04-28T04:20:14.179Z,5.80
2023-04-28T04:22:41.821Z,6.83
2023-04-28T04:25:09.598Z,6.50
2023-04-28T04:27:37.150Z,7.40
2023-04-28T04:30:05.350Z,7.03
2023-04-28T04:32:32.907Z,6.63
2023-04-28T04:35:01.706Z,7.13
2023-04-28T04:37:29.429Z,6.87
2023-04-28T04:39:57.045Z,6.20
2023-04-28T04:42:25.954Z,6.70
2023-04-28T04:44:53.580Z,6.00
2023-04-28T04:47:21.028Z,6.73
2023-04-28T04:49:49.230Z,6.80
2023-04-28T04:52:18.057Z,5.00
2023-04-28T04:54:46.280Z,6.20
2023-04-28T04:57:13.982Z,6.93
2023-04-28T04:59:41.435Z,9.07
2023-04-28T05:02:08.950Z,6.87
2023-04-28T05:04:36.656Z,11.50
2023-04-28T05:07:04.156Z,6.07
2023-04-28T05:09:33.865Z,13.10
2023-04-28T05:12:01.650Z,7.40
2023-04-28T05:14:29.121Z,7.73
2023-04-28T05:16:56.927Z,5.77
2023-04-28T05:19:24.501Z,8.20
2023-04-28T05:21:53.803Z,8.83
2023-04-28T05:24:23.499Z,7.17
2023-04-28T05:26:53.918Z,7.37
2023-04-28T05:29:21.685Z,7.50
2023-04-28T05:31:49.194Z,9.47
2023-04-28T05:34:17.060Z,7.90
2023-04-28T05:36:45.499Z,7.10
2023-04-28T05:39:13.028Z,10.07
2023-04-28T05:41:40.626Z,6.90
2023-04-28T05:44:09.479Z,7.63
2023-04-28T05:46:37.557Z,6.60
2023-04-28T05:49:05.004Z,9.90
2023-04-28T05:51:33.607Z,7.20
2023-04-28T05:54:01.309Z,7.60
2023-04-28T05:56:28.829Z,7.80
2023-04-28T05:58:56.774Z,7.20
2023-04-28T06:01:28.237Z,9.07
2023-04-28T06:03:57.940Z,12.03
2023-04-28T06:06:26.010Z,9.07
2023-04-28T06:08:53.516Z,10.70
2023-04-28T06:11:22.376Z,8.20
2023-04-28T06:13:50.146Z,9.20
2023-04-28T06:16:17.820Z,8.97
2023-04-28T06:18:48.449Z,8.00
2023-04-28T06:21:17.589Z,7.50
2023-04-28T06:23:45.049Z,10.47
2023-04-28T06:26:12.504Z,12.60
2023-04-28T06:28:39.994Z,10.67
2023-04-28T06:31:07.497Z,8.33
2023-04-28T06:33:35.053Z,9.97
2023-04-28T06:36:04.672Z,11.90
2023-04-28T06:38:32.144Z,8.67
2023-04-28T06:40:59.600Z,9.67
2023-04-28T06:43:27.200Z,9.30
2023-04-28T06:45:54.692Z,10.47
2023-04-28T06:48:22.143Z,10.70
2023-04-28T06:50:49.589Z,11.93
2023-04-28T06:53:18.469Z,10.20
2023-04-28T06:55:45.895Z,9.03
2023-04-28T06:58:13.389Z,9.60
2023-04-28T07:00:40.956Z,10.50
2023-04-28T07:03:08.948Z,13.70
2023-04-28T07:05:36.807Z,7.70
2023-04-28T07:08:04.418Z,16.10
2023-04-28T07:10:33.281Z,9.87
2023-04-28T07:13:00.728Z,12.20
2023-04-28T07:15:28.567Z,9.83
2023-04-28T07:17:56.275Z,10.60
2023-04-28T07:20:23.764Z,10.43
2023-04-28T07:22:51.312Z,10.40
2023-04-28T07:25:18.827Z,10.50
2023-04-28T07:27:48.167Z,11.67
2023-04-28T07:30:26.493Z,9.40
2023-04-28T07:32:54.619Z,12.00
2023-04-28T07:35:22.638Z,11.37
2023-04-28T07:37:50.457Z,10.80
2023-04-28T07:40:18.454Z,9.57
2023-04-28T07:42:46.098Z,11.27
2023-04-28T07:45:15.793Z,12.03
2023-04-28T07:47:43.320Z,10.10
2023-04-28T07:50:12.528Z,11.03
2023-04-28T07:52:40.444Z,14.20
2023-04-28T07:55:08.338Z,12.50
2023-04-28T07:57:36.195Z,12.50
2023-04-28T08:00:03.967Z,11.57
2023-04-28T08:02:34.363Z,11.37
2023-04-28T08:05:02.414Z,14.83
2023-04-28T08:07:30.080Z,11.30
2023-04-28T08:09:57.554Z,11.07
2023-04-28T08:12:25.017Z,12.80
2023-04-28T08:14:52.466Z,13.43
2023-04-28T08:17:19.951Z,11.03
2023-04-28T08:19:48.793Z,14.80
2023-04-28T08:22:16.258Z,13.73
2023-04-28T08:24:43.744Z,13.67
2023-04-28T08:27:13.943Z,12.20
2023-04-28T08:29:41.428Z,10.90
2023-04-28T08:32:08.981Z,12.30
2023-04-28T08:34:36.480Z,12.83
2023-04-28T08:37:06.819Z,10.93
2023-04-28T08:39:35.283Z,14.87
2023-04-28T08:42:04.593Z,10.43
2023-04-28T08:44:35.901Z,11.87
2023-04-28T08:47:04.928Z,11.63
2023-04-28T08:49:36.073Z,12.70
2023-04-28T08:52:10.511Z,11.77
2023-04-28T08:54:39.482Z,14.00
2023-04-28T08:57:09.556Z,18.33
2023-04-28T08:59:40.191Z,13.60
2023-04-28T09:02:08.695Z,11.60
2023-04-28T09:04:36.353Z,12.73
2023-04-28T09:07:05.425Z,13.13
2023-04-28T09:09:35.727Z,14.90
2023-04-28T09:12:05.295Z,13.30
2023-04-28T09:14:34.323Z,15.70
2023-04-28T09:17:02.247Z,13.67
2023-04-28T09:19:34.330Z,19.53
2023-04-28T09:22:07.695Z,12.57
2023-04-28T09:24:43.460Z,16.77
2023-04-28T09:27:12.160Z,16.37
2023-04-28T09:29:41.030Z,13.60
2023-04-28T09:32:15.905Z,15.73
2023-04-28T09:34:45.488Z,11.67
2023-04-28T09:37:17.669Z,15.33
2023-04-28T09:39:47.243Z,17.67
2023-04-28T09:42:33.717Z,15.53
2023-04-28T09:45:02.881Z,13.50
2023-04-28T09:47:30.815Z,14.83
2023-04-28T09:49:59.994Z,14.40
2023-04-28T09:52:27.877Z,16.80
2023-04-28T09:54:58.308Z,14.43
2023-04-28T09:57:25.826Z,14.40
2023-04-28T09:59:54.452Z,17.37
2023-04-28T10:02:41.585Z,15.63
2023-04-28T10:05:11.533Z,16.77
2023-04-28T10:07:40.114Z,18.77
2023-04-28T10:10:09.734Z,21.77
2023-04-28T10:12:38.297Z,20.00
2023-04-28T10:15:07.487Z,20.33
2023-04-28T10:17:35.010Z,24.70
2023-04-28T10:20:03.484Z,18.67
2023-04-28T10:22:39.362Z,23.83
2023-04-28T10:25:25.652Z,22.03
2023-04-28T10:27:53.445Z,24.00
2023-04-28T10:30:28.132Z,20.57
2023-04-28T10:33:26.111Z,21.10
2023-04-28T10:35:53.941Z,20.37
2023-04-28T10:38:22.507Z,23.37
2023-04-28T10:40:52.449Z,22.60
2023-04-28T10:43:37.524Z,19.87
2023-04-28T10:46:09.408Z,21.47
2023-04-28T10:49:07.016Z,18.70
2023-04-28T10:51:35.492Z,14.47
2023-04-28T10:54:17.189Z,17.80
2023-04-28T10:57:19.075Z,16.13
2023-04-28T10:59:46.721Z,19.60
2023-04-28T11:02:44.694Z,22.13
2023-04-28T11:05:19.945Z,20.77
2023-04-28T11:08:29.780Z,16.13
2023-04-28T11:11:25.814Z,16.00
2023-04-28T11:13:55.873Z,16.40
2023-04-28T11:16:25.352Z,14.20
2023-04-28T11:18:55.856Z,15.60
2023-04-28T11:21:25.775Z,17.70
2023-04-28T11:23:53.426Z,18.00
2023-04-28T11:26:21.115Z,15.77
2023-04-28T11:28:50.928Z,16.93
2023-04-28T11:31:21.710Z,13.33
2023-04-28T11:33:52.565Z,13.73
2023-04-28T11:36:27.957Z,12.50
2023-04-28T11:38:56.052Z,12.07
2023-04-28T11:41:23.909Z,14.53
2023-04-28T11:43:51.795Z,11.90
2023-04-28T11:46:22.158Z,13.63
2023-04-28T11:48:51.204Z,12.27
2023-04-28T11:51:46.872Z,11.70
2023-04-28T11:54:14.989Z,10.80
2023-04-28T11:56:44.789Z,8.90
2023-04-28T11:59:13.706Z,8.33
2023-04-28T12:01:52.259Z,10.33
2023-04-28T12:04:30.088Z,9.73
2023-04-28T12:07:05.114Z,9.97
2023-04-28T12:09:33.622Z,6.87
2023-04-28T12:12:02.834Z,9.13
2023-04-28T12:14:31.946Z,8.83
2023-04-28T12:17:01.158Z,9.07
2023-04-28T12:19:28.745Z,8.80
2023-04-28T12:22:03.936Z,8.53
2023-04-28T12:24:31.551Z,6.00
2023-04-28T12:27:18.571Z,5.47
2023-04-28T12:29:47.268Z,6.83
2023-04-28T12:32:16.385Z,6.70
2023-04-28T12:34:45.968Z,6.10
2023-04-28T12:37:14.106Z,6.57
2023-04-28T12:39:42.398Z,9.03
2023-04-28T12:42:10.157Z,8.07
2023-04-28T12:44:38.451Z,6.83
2023-04-28T12:47:07.297Z,5.97
2023-04-28T12:49:36.471Z,9.63
2023-04-28T12:52:04.482Z,5.63
2023-04-28T12:54:32.171Z,4.87
2023-04-28T12:56:59.667Z,6.03
2023-04-28T12:59:27.288Z,4.13
2023-04-28T13:01:55.375Z,4.70
2023-04-28T13:04:23.081Z,7.63
2023-04-28T13:06:52.684Z,6.20
2023-04-28T13:09:20.625Z,4.83
2023-04-28T13:11:48.108Z,5.47
2023-04-28T13:14:15.569Z,5.10
2023-04-28T13:16:43.076Z,4.30
2023-04-28T13:19:13.636Z,5.43
2023-04-28T13:21:41.858Z,5.37
2023-04-28T13:24:11.210Z,4.30
2023-04-28T13:26:38.715Z,4.17
2023-04-28T13:29:08.126Z,3.37
2023-04-28T13:31:35.657Z,4.67
2023-04-28T13:34:04.116Z,4.70
2023-04-28T13:36:32.557Z,5.80
2023-04-28T13:39:01.687Z,4.33
2023-04-28T13:41:31.234Z,4.90
2023-04-28T13:43:58.782Z,6.83
2023-04-28T13:46:26.338Z,4.83
2023-04-28T13:48:54.035Z,3.83
2023-04-28T13:51:21.477Z,6.80
2023-04-28T13:53:48.906Z,4.60
2023-04-28T13:56:16.376Z,5.77
2023-04-28T13:58:45.155Z,4.63
2023-04-28T14:01:12.729Z,5.60
2023-04-28T14:03:40.577Z,4.83
2023-04-28T14:06:08.249Z,5.80
2023-04-28T14:08:36.606Z,7.60
2023-04-28T14:11:04.137Z,6.87
2023-04-28T14:13:31.607Z,6.00
2023-04-28T14:16:00.595Z,6.63
2023-04-28T14:18:28.119Z,6.50
2023-04-28T14:20:55.676Z,6.03
2023-04-28T14:23:23.330Z,6.20
2023-04-28T14:25:51.732Z,6.33
2023-04-28T14:28:21.436Z,5.60
2023-04-28T14:30:49.982Z,6.07
2023-04-28T14:33:18.895Z,5.60
2023-04-28T14:35:46.364Z,4.93
2023-04-28T14:38:13.969Z,4.73
2023-04-28T14:40:42.782Z,5.10
2023-04-28T14:43:10.244Z,4.53
2023-04-28T14:45:38.080Z,4.33
2023-04-28T14:48:06.819Z,4.10
2023-04-28T14:50:35.867Z,3.83
2023-04-28T14:53:06.775Z,3.70
2023-04-28T14:55:34.458Z,3.20
2023-04-28T14:58:02.854Z,4.13
2023-04-28T15:00:30.742Z,4.10
2023-04-28T15:02:58.492Z,4.20
2023-04-28T15:05:26.058Z,3.80
2023-04-28T15:07:54.888Z,3.20
2023-04-28T15:10:22.343Z,4.23
2023-04-28T15:12:49.802Z,3.40
2023-04-28T15:15:17.254Z,2.80
2023-04-28T15:17:45.322Z,3.03
2023-04-28T15:20:12.987Z,3.10
2023-04-28T15:22:40.972Z,2.40
2023-04-28T15:25:10.263Z,3.00
2023-04-28T15:27:37.935Z,2.73
2023-04-28T15:30:06.381Z,2.67
2023-04-28T15:32:33.863Z,3.07
2023-04-28T15:35:01.571Z,3.40
2023-04-28T15:37:40.733Z,3.10
2023-04-28T15:40:11.377Z,4.00
2023-04-28T15:42:41.798Z,4.40
2023-04-28T15:45:10.861Z,3.90
2023-04-28T15:47:39.050Z,4.03
2023-04-28T15:50:08.960Z,4.23
2023-04-28T15:52:39.268Z,4.33
2023-04-28T15:55:07.990Z,3.87
2023-04-28T15:57:37.495Z,7.17
2023-04-28T16:00:06.720Z,4.90
2023-04-28T16:02:34.412Z,4.10
2023-04-28T16:05:02.515Z,3.70
2023-04-28T16:07:30.757Z,3.13
2023-04-28T16:09:58.769Z,3.60
2023-04-28T16:12:26.376Z,3.40
2023-04-28T16:14:55.891Z,2.87
2023-04-28T16:17:23.573Z,2.47
2023-04-28T16:19:51.046Z,2.83
2023-04-28T16:22:18.545Z,3.03
2023-04-28T16:24:46.341Z,4.13
2023-04-28T16:27:14.199Z,2.13
2023-04-28T16:29:41.686Z,4.43
2023-04-28T16:32:10.627Z,2.20
2023-04-28T16:34:38.155Z,2.50
2023-04-28T16:37:06.874Z,3.60
2023-04-28T16:39:34.625Z,2.53
2023-04-28T16:42:03.685Z,2.50
2023-04-28T16:44:31.514Z,2.63
2023-04-28T16:46:59.384Z,3.00
2023-04-28T16:49:28.296Z,2.43
2023-04-28T16:51:57.535Z,3.80
2023-04-28T16:54:25.289Z,2.90
2023-04-28T16:56:52.865Z,2.93
2023-04-28T16:59:20.460Z,2.47
2023-04-28T17:01:48.171Z,2.20
2023-04-28T17:04:16.780Z,1.93
2023-04-28T17:06:46.359Z,2.23
2023-04-28T17:09:13.928Z,2.37
2023-04-28T17:11:41.363Z,2.20
2023-04-28T17:14:08.816Z,2.30
2023-04-28T17:16:36.996Z,2.30
2023-04-28T17:19:05.427Z,1.93
2023-04-28T17:21:33.642Z,3.10
2023-04-28T17:24:02.742Z,1.73
2023-04-28T17:26:31.210Z,2.03
2023-04-28T17:28:59.838Z,2.10
2023-04-28T17:31:27.499Z,1.70
2023-04-28T17:33:57.486Z,1.70
2023-04-28T17:36:25.916Z,2.30
2023-04-28T17:38:53.616Z,2.77
2023-04-28T17:41:22.771Z,2.23
2023-04-28T17:43:51.401Z,1.67
2023-04-28T17:46:19.025Z,1.30
2023-04-28T17:48:46.712Z,2.10
2023-04-28T17:51:14.209Z,2.90
2023-04-28T17:53:42.451Z,3.63
2023-04-28T17:56:09.951Z,1.40
2023-04-28T17:58:38.768Z,2.20
2023-04-28T18:01:07.731Z,1.67
2023-04-28T18:03:35.913Z,2.03
2023-04-28T18:06:04.724Z,1.63
2023-04-28T18:08:32.181Z,2.50
2023-04-28T18:11:00.530Z,1.20
2023-04-28T18:13:28.058Z,1.90
2023-04-28T18:15:56.879Z,1.87
2023-04-28T18:18:24.387Z,1.80
2023-04-28T18:20:57.910Z,1.37
2023-04-28T18:23:25.986Z,2.23
2023-04-28T18:25:53.446Z,1.70
2023-04-28T18:28:21.080Z,2.77
2023-04-28T18:30:47.524Z,3.00
2023-04-28T18:33:19.498Z,1.73
2023-04-28T18:35:48.824Z,3.70
2023-04-28T18:38:16.611Z,3.03
2023-04-28T18:40:44.043Z,1.90
2023-04-28T18:43:11.699Z,1.97
2023-04-28T18:45:41.196Z,2.10
2023-04-28T18:48:10.177Z,2.43
2023-04-28T18:50:39.271Z,1.33
2023-04-28T18:53:08.753Z,1.90
2023-04-28T18:55:36.875Z,2.83
2023-04-28T18:58:04.567Z,1.50
2023-04-28T19:00:32.649Z,2.30
2023-04-28T19:03:00.438Z,2.00
2023-04-28T19:05:28.087Z,3.00
2023-04-28T19:07:56.856Z,1.53
2023-04-28T19:10:24.312Z,2.23
2023-04-28T19:12:51.751Z,1.53
2023-04-28T19:15:19.290Z,1.30
2023-04-28T19:17:46.829Z,1.50
2023-04-28T19:20:14.400Z,1.60
2023-04-28T19:22:42.114Z,2.80
2023-04-28T19:25:11.289Z,6.30
2023-04-28T19:27:40.378Z,3.90
2023-04-28T19:30:10.900Z,4.67
2023-04-28T19:32:38.760Z,5.53
2023-04-28T19:35:07.958Z,4.53
2023-04-28T19:37:35.938Z,2.57
2023-04-28T19:40:05.618Z,2.53
2023-04-28T19:42:35.285Z,2.67
2023-04-28T19:45:03.747Z,3.43
2023-04-28T19:47:33.707Z,3.00
2023-04-28T19:50:01.330Z,2.27
2023-04-28T19:52:29.009Z,2.37
2023-04-28T19:54:57.167Z,1.70
2023-04-28T19:57:24.721Z,6.53
2023-04-28T19:59:53.614Z,1.77
2023-04-28T20:02:21.530Z,2.20
2023-04-28T20:04:49.728Z,2.70
2023-04-28T20:07:17.230Z,2.20
2023-04-28T20:09:45.464Z,2.47
2023-04-28T20:12:13.274Z,4.50
2023-04-28T20:14:40.738Z,3.93
2023-04-28T20:17:09.940Z,7.47
2023-04-28T20:19:37.658Z,3.30
2023-04-28T20:22:08.337Z,2.83
2023-04-28T20:24:36.926Z,3.80
2023-04-28T20:27:04.678Z,3.53
2023-04-28T20:29:34.724Z,2.70
2023-04-28T20:32:03.186Z,4.00
2023-04-28T20:34:32.128Z,3.40
2023-04-28T20:37:03.458Z,3.03
2023-04-28T20:39:30.986Z,4.43
2023-04-28T20:41:59.322Z,3.63
2023-04-28T20:44:26.824Z,2.53
2023-04-28T20:46:55.190Z,2.90
2023-04-28T20:49:22.726Z,3.03
2023-04-28T20:51:51.514Z,6.63
2023-04-28T20:54:19.007Z,3.93
2023-04-28T20:56:46.607Z,2.93
2023-04-28T20:59:14.055Z,3.53
2023-04-28T21:01:41.933Z,2.67
2023-04-28T21:04:09.579Z,2.93
2023-04-28T21:06:37.283Z,4.80
2023-04-28T21:09:06.112Z,2.83
2023-04-28T21:11:33.673Z,2.90
2023-04-28T21:14:01.115Z,3.87
2023-04-28T21:16:28.582Z,4.23
2023-04-28T21:18:56.583Z,3.03
2023-04-28T21:21:24.032Z,2.53
2023-04-28T21:23:51.468Z,5.90
2023-04-28T21:26:21.809Z,3.07
2023-04-28T21:28:50.140Z,5.90
2023-04-28T21:31:17.579Z,2.60
2023-04-28T21:33:45.000Z,4.17
2023-04-28T21:36:12.495Z,3.40
2023-04-28T21:38:39.969Z,3.27
2023-04-28T21:41:08.660Z,4.77
2023-04-28T21:43:37.509Z,3.90
2023-04-28T21:46:05.088Z,4.53
2023-04-28T21:48:32.769Z,2.93
2023-04-28T21:51:01.101Z,5.83
2023-04-28T21:53:28.627Z,4.07
2023-04-28T21:55:56.132Z,3.00
2023-04-28T21:58:23.736Z,3.73
2023-04-28T22:00:52.853Z,5.30
2023-04-28T22:03:20.512Z,3.57
2023-04-28T22:05:48.266Z,3.13
2023-04-28T22:08:16.865Z,3.10
2023-04-28T22:10:45.384Z,3.17
2023-04-28T22:13:12.866Z,3.17
2023-04-28T22:15:41.620Z,2.60
2023-04-28T22:18:10.451Z,2.93
2023-04-28T22:20:38.321Z,6.60
2023-04-28T22:23:05.968Z,2.30
2023-04-28T22:25:33.460Z,3.10
2023-04-28T22:28:00.903Z,3.43
2023-04-28T22:30:28.467Z,2.23
2023-04-28T22:32:55.959Z,3.10
2023-04-28T22:35:24.847Z,2.43
2023-04-28T22:37:52.413Z,2.60
2023-04-28T22:40:19.982Z,2.33
2023-04-28T22:42:47.452Z,2.57
2023-04-28T22:45:14.971Z,1.70
2023-04-28T22:47:42.807Z,2.97
2023-04-28T22:50:10.886Z,2.20
2023-04-28T22:52:40.005Z,2.27
2023-04-28T22:55:08.308Z,3.53
2023-04-28T22:57:36.349Z,2.00
2023-04-28T23:00:04.138Z,2.10
2023-04-28T23:02:31.775Z,2.30
2023-04-28T23:04:59.836Z,2.53
2023-04-28T23:07:27.355Z,2.63
2023-04-28T23:09:56.145Z,3.20
2023-04-28T23:12:23.652Z,2.13
2023-04-28T23:14:51.105Z,3.07
2023-04-28T23:17:18.664Z,2.47
2023-04-28T23:19:46.141Z,5.93
2023-04-28T23:22:13.634Z,3.97
2023-04-28T23:24:42.253Z,2.17
2023-04-28T23:27:11.072Z,3.57
2023-04-28T23:29:38.519Z,2.63
2023-04-28T23:32:06.705Z,4.07
2023-04-28T23:34:34.229Z,2.60
2023-04-28T23:37:01.664Z,2.60
2023-04-28T23:39:30.005Z,2.47
2023-04-28T23:41:58.534Z,3.30
2023-04-28T23:44:27.478Z,2.63
2023-04-28T23:46:56.117Z,2.10
2023-04-28T23:49:23.904Z,3.33
2023-04-28T23:51:51.356Z,2.80
2023-04-28T23:54:18.801Z,1.80
2023-04-28T23:56:46.279Z,3.20
2023-04-28T23:59:13.782Z,1.90
